Time;durP1;ratioP1;P1;durP2;ratioP2;P2;SDS_P1;SDS_P2;PMS_P1;PMS_P2;Temp;Humidity;BMP_temperature;BMP_pressure;BME280_temperature;BME280_humidity;BME280_pressure;Samples;Min_cycle;Max_cycle;Signal;HPM_P1;HPM_P2
2022/12/14 00:01:09;;;;;;;7.37;6.77;;;;;;;3.70;75.66;99545.03;4993706;28;20448;-67
2022/12/14 00:03:36;;;;;;;7.47;6.87;;;;;;;3.60;75.94;99544.25;4993692;28;20449;-68
2022/12/14 00:06:11;;;;;;;7.60;7.10;;;;;;;3.65;76.24;99551.69;4993343;28;21062;-67
2022/12/14 00:08:38;;;;;;;7.47;6.70;;;;;;;3.63;75.84;99549.22;4994539;28;20440;-68
2022/12/14 00:11:05;;;;;;;7.20;6.60;;;;;;;3.63;75.84;99548.41;4993932;28;20470;-68
2022/12/14 00:13:32;;;;;;;7.37;6.77;;;;;;;3.65;74.73;99551.69;4993580;28;21000;-68
2022/12/14 00:15:59;;;;;;;6.93;6.43;;;;;;;3.73;75.30;99547.34;4993408;28;20492;-68
2022/12/14 00:18:25;;;;;;;8.33;7.63;;;;;;;3.79;73.78;99553.78;4994528;28;20442;-68
2022/12/14 00:20:52;;;;;;;7.97;7.37;;;;;;;3.71;73.23;99549.28;4993801;28;20479;-68
2022/12/14 00:23:20;;;;;;;8.40;7.60;;;;;;;3.73;73.39;99557.03;4993678;28;20945;-68
2022/12/14 00:25:47;;;;;;;7.90;7.17;;;;;;;3.71;73.27;99556.34;4993086;28;21000;-68
2022/12/14 00:28:14;;;;;;;8.13;7.43;;;;;;;3.66;73.91;99554.19;4993761;28;20445;-67
2022/12/14 00:30:40;;;;;;;8.20;7.50;;;;;;;3.58;73.54;99540.97;4993023;28;20981;-68
2022/12/14 00:33:07;;;;;;;7.70;7.07;;;;;;;3.61;73.88;99542.47;4992999;28;20441;-68
2022/12/14 00:35:35;;;;;;;7.93;7.23;;;;;;;3.69;72.91;99546.00;4993095;28;20445;-68
2022/12/14 00:38:01;;;;;;;8.40;7.60;;;;;;;3.36;73.10;99549.31;4993045;28;20450;-68
2022/12/14 00:40:29;;;;;;;8.03;7.33;;;;;;;3.42;73.75;99535.56;4993278;28;20438;-68
2022/12/14 00:42:56;;;;;;;7.63;7.13;;;;;;;3.22;74.13;99533.22;4993615;28;20442;-68
2022/12/14 00:45:23;;;;;;;7.93;7.23;;;;;;;3.32;73.63;99529.56;4992842;28;20582;-68
2022/12/14 00:47:49;;;;;;;9.37;7.90;;;;;;;3.44;73.81;99530.97;4993242;28;20449;-68
2022/12/14 00:50:16;;;;;;;7.97;7.37;;;;;;;3.53;74.05;99537.13;4992806;28;20445;-68
2022/12/14 00:52:43;;;;;;;8.83;8.03;;;;;;;3.47;74.33;99538.56;4993167;28;20481;-68
2022/12/14 00:55:10;;;;;;;8.57;7.87;;;;;;;3.05;74.60;99476.31;4992669;28;20883;-68
2022/12/14 00:57:38;;;;;;;8.60;7.87;;;;;;;3.48;74.73;99539.41;4992519;28;20868;-68
2022/12/14 01:00:06;;;;;;;8.40;7.70;;;;;;;3.55;74.56;99529.97;4992980;28;20508;-68
2022/12/14 01:02:33;;;;;;;7.80;7.10;;;;;;;3.48;75.15;99534.94;4992960;28;20438;-68
2022/12/14 01:05:00;;;;;;;9.37;8.20;;;;;;;3.50;75.38;99538.28;4992498;28;20619;-68
2022/12/14 01:07:26;;;;;;;8.50;7.77;;;;;;;3.39;75.05;99522.72;4992639;28;20446;-67
2022/12/14 01:09:53;;;;;;;8.73;7.90;;;;;;;3.61;74.50;99540.69;4993467;28;20450;-68
2022/12/14 01:12:20;;;;;;;8.50;7.70;;;;;;;3.53;74.51;99529.25;4992600;28;20446;-68
2022/12/14 01:14:48;;;;;;;8.10;7.40;;;;;;;3.59;74.95;99540.00;4992531;28;20954;-67
2022/12/14 01:17:15;;;;;;;8.93;8.20;;;;;;;3.69;73.90;99542.53;4992860;28;20437;-68
2022/12/14 01:19:41;;;;;;;8.73;7.93;;;;;;;3.75;74.07;99542.75;4992524;28;20531;-68
2022/12/14 01:22:09;;;;;;;8.00;7.40;;;;;;;3.71;72.36;99549.28;4992949;28;20499;-68
2022/12/14 01:24:36;;;;;;;8.77;7.90;;;;;;;3.66;72.46;99551.56;4992403;28;20446;-68
2022/12/14 01:27:02;;;;;;;8.37;7.37;;;;;;;3.65;71.59;99542.03;4992617;28;20441;-68
2022/12/14 01:29:29;;;;;;;7.83;7.13;;;;;;;3.71;71.15;99548.44;4992725;28;20866;-68
2022/12/14 01:31:57;;;;;;;8.73;7.93;;;;;;;3.66;71.12;99541.03;4992642;28;20500;-68
2022/12/14 01:34:24;;;;;;;7.50;6.97;;;;;;;3.46;71.58;99542.16;4993547;28;20442;-68
2022/12/14 01:36:50;;;;;;;7.83;7.20;;;;;;;3.54;71.95;99542.25;4992222;28;21012;-68
2022/12/14 01:39:17;;;;;;;7.37;6.83;;;;;;;3.23;72.24;99543.56;4993167;28;20445;-68
2022/12/14 01:41:47;;;;;;;8.00;7.30;;;;;;;3.37;72.49;99543.06;4992746;28;20512;-68
2022/12/14 01:44:51;;;;;;;8.27;7.47;;;;;;;3.54;72.60;99550.13;4993986;28;20481;-68
2022/12/14 01:47:24;;;;;;;8.00;7.30;;;;;;;3.57;71.38;99560.34;4996460;28;20499;-68
2022/12/14 01:49:56;;;;;;;7.80;7.10;;;;;;;3.59;71.81;99561.00;4996625;28;20437;-67
2022/12/14 01:52:27;;;;;;;8.27;7.57;;;;;;;3.61;70.51;99563.47;4996182;28;20883;-68
2022/12/14 01:54:58;;;;;;;8.07;7.40;;;;;;;3.53;70.69;99563.41;4997537;28;20441;-67
2022/12/14 01:57:28;;;;;;;7.50;7.00;;;;;;;3.59;70.92;99568.06;4995970;28;20483;-68
2022/12/14 01:59:58;;;;;;;7.90;7.30;;;;;;;3.60;70.60;99565.25;4996331;28;20445;-68
2022/12/14 02:02:28;;;;;;;7.97;7.13;;;;;;;3.44;69.78;99565.09;4995889;28;20949;-68
2022/12/14 02:04:58;;;;;;;7.93;7.33;;;;;;;3.36;71.58;99559.81;4996744;28;20857;-68
2022/12/14 02:07:29;;;;;;;7.20;6.60;;;;;;;3.44;71.75;99564.31;4995854;28;20434;-68
2022/12/14 02:10:00;;;;;;;7.13;6.60;;;;;;;3.47;71.27;99566.63;4995822;28;20496;-68
2022/12/14 02:12:30;;;;;;;6.50;6.00;;;;;;;3.52;71.36;99557.31;4995790;28;20929;-67
2022/12/14 02:14:58;;;;;;;7.17;6.57;;;;;;;3.44;71.92;99545.94;4996304;28;20500;-66
2022/12/14 02:17:27;;;;;;;11.00;7.10;;;;;;;3.51;72.60;99555.66;4995602;28;20528;-68
2022/12/14 02:19:57;;;;;;;7.77;7.03;;;;;;;3.56;71.88;99547.34;4996619;28;20496;-68
2022/12/14 02:22:43;;;;;;;7.73;6.97;;;;;;;3.64;71.37;99564.00;4995498;28;20960;-68
2022/12/14 02:25:46;;;;;;;7.77;7.07;;;;;;;3.63;71.71;99564.97;4995581;28;20461;-68
2022/12/14 02:28:37;;;;;;;7.87;7.27;;;;;;;3.71;70.63;99567.66;4975922;28;20442;-68
2022/12/14 02:31:15;;;;;;;9.47;7.07;;;;;;;3.71;70.60;99562.41;4988564;28;20844;-68
2022/12/14 02:33:49;;;;;;;8.10;7.47;;;;;;;3.35;70.59;99537.13;4996235;28;20429;-68
2022/12/14 02:36:25;;;;;;;8.27;7.57;;;;;;;3.58;71.04;99550.63;4995314;28;20445;-68
2022/12/14 02:39:03;;;;;;;7.80;7.17;;;;;;;3.68;70.75;99562.72;4995391;28;20441;-68
2022/12/14 02:41:37;;;;;;;7.87;7.27;;;;;;;3.65;69.58;99562.19;4995213;28;20444;-68
2022/12/14 02:44:09;;;;;;;7.73;7.03;;;;;;;3.69;70.44;99564.38;4996300;28;20782;-68
2022/12/14 02:46:42;;;;;;;8.40;7.60;;;;;;;3.74;70.45;99564.75;4995403;28;20265;-68
2022/12/14 02:49:14;;;;;;;7.90;7.00;;;;;;;3.72;70.42;99563.25;4995162;28;21009;-68
2022/12/14 02:51:52;;;;;;;7.80;7.27;;;;;;;3.76;70.35;99567.22;4995695;28;20442;-68
2022/12/14 02:54:24;;;;;;;8.00;7.13;;;;;;;3.73;70.25;99562.28;4995126;28;20941;-68
2022/12/14 02:56:57;;;;;;;7.30;6.70;;;;;;;3.75;70.55;99563.78;4994943;28;20434;-68
2022/12/14 02:59:24;;;;;;;8.00;7.30;;;;;;;3.76;70.47;99565.41;4995813;28;20430;-68
2022/12/14 03:01:53;;;;;;;8.37;7.77;;;;;;;3.75;70.47;99566.41;4995643;28;20445;-68
2022/12/14 03:04:20;;;;;;;8.93;8.13;;;;;;;3.59;70.38;99562.81;4995124;28;20441;-68
2022/12/14 03:06:57;;;;;;;8.73;7.97;;;;;;;3.50;71.15;99558.44;4994977;28;20587;-68
2022/12/14 03:09:25;;;;;;;9.33;8.37;;;;;;;3.56;71.50;99553.41;4995380;28;20525;-68
2022/12/14 03:11:56;;;;;;;8.17;7.47;;;;;;;3.49;71.27;99567.28;4994222;28;21023;-68
2022/12/14 03:14:27;;;;;;;7.73;7.07;;;;;;;3.51;70.82;99550.41;4995302;28;20444;-68
2022/12/14 03:16:59;;;;;;;8.17;7.10;;;;;;;3.63;70.91;99553.66;4994559;28;20438;-68
2022/12/14 03:19:30;;;;;;;7.57;7.03;;;;;;;3.56;70.97;99542.91;4992273;28;20516;-68
2022/12/14 03:22:00;;;;;;;7.23;6.73;;;;;;;3.63;70.42;99543.97;4993678;28;20445;-68
2022/12/14 03:24:32;;;;;;;10.57;8.10;;;;;;;3.70;70.68;99550.28;4994134;28;20532;-68
2022/12/14 03:27:05;;;;;;;8.00;7.30;;;;;;;3.64;70.74;99555.31;4994455;28;20465;-68
2022/12/14 03:29:38;;;;;;;8.40;7.60;;;;;;;3.65;69.86;99552.53;4993266;28;20927;-67
2022/12/14 03:32:09;;;;;;;7.80;7.20;;;;;;;3.59;70.84;99562.81;4975146;28;20519;-67
2022/12/14 03:34:40;;;;;;;7.83;7.17;;;;;;;3.65;70.40;99552.53;4974933;28;20954;-68
2022/12/14 03:37:13;;;;;;;8.40;7.73;;;;;;;3.76;71.00;99554.91;4975654;28;20516;-67
2022/12/14 03:39:42;;;;;;;8.87;7.97;;;;;;;3.76;70.68;99562.78;4975720;28;20437;-67
2022/12/14 03:42:16;;;;;;;9.00;8.30;;;;;;;3.73;70.56;99573.63;4974617;28;20501;-68
2022/12/14 03:44:47;;;;;;;8.07;7.37;;;;;;;3.79;70.21;99580.03;4975795;28;20426;-68
2022/12/14 03:47:24;;;;;;;8.07;7.33;;;;;;;3.77;69.44;99566.25;4975464;28;20606;-68
2022/12/14 03:49:59;;;;;;;8.23;7.53;;;;;;;3.85;69.81;99571.56;4975129;28;20893;-67
2022/12/14 03:52:33;;;;;;;8.10;7.40;;;;;;;3.68;69.66;99562.72;4974464;28;20438;-68
2022/12/14 03:55:10;;;;;;;9.47;8.07;;;;;;;3.58;70.57;99566.41;4975365;28;20439;-68
2022/12/14 03:57:47;;;;;;;8.60;7.77;;;;;;;3.64;70.38;99557.94;4974853;28;20442;-68
2022/12/14 04:00:18;;;;;;;9.30;7.67;;;;;;;3.37;71.08;99552.75;4974942;28;20853;-67
2022/12/14 04:02:53;;;;;;;9.50;8.47;;;;;;;3.37;71.10;99558.81;4974592;28;20434;-68
2022/12/14 04:05:25;;;;;;;11.73;9.10;;;;;;;3.38;72.28;99549.13;4974516;28;20500;-68
2022/12/14 04:07:59;;;;;;;9.60;8.70;;;;;;;3.45;72.09;99553.66;4973321;28;20880;-68
2022/12/14 04:18:59;;;;;;;10.17;9.17;;;;;;;3.40;73.00;99537.53;4974204;28;20413;-68
2022/12/14 04:21:34;;;;;;;10.03;9.13;;;;;;;3.44;72.98;99533.59;4974711;28;20482;-68
2022/12/14 04:26:56;;;;;;;12.17;9.90;;;;;;;3.23;74.10;99538.31;4986702;28;20891;-68
2022/12/14 04:32:20;;;;;;;8.73;7.83;;;;;;;3.45;73.34;99535.28;4974107;28;20395;-68
2022/12/14 04:34:51;;;;;;;9.57;8.70;;;;;;;3.55;72.77;99540.47;4974660;28;20485;-67
2022/12/14 04:37:21;;;;;;;13.97;8.53;;;;;;;3.50;72.61;99538.28;4973677;28;20478;-68
2022/12/14 04:39:52;;;;;;;10.23;8.07;;;;;;;3.20;72.99;99533.38;4973971;28;20811;-67
2022/12/14 04:42:24;;;;;;;10.23;9.33;;;;;;;3.29;73.55;99529.88;4973024;28;20433;-67
2022/12/14 04:44:54;;;;;;;9.27;8.47;;;;;;;3.33;73.76;99520.72;4974123;28;20485;-67
2022/12/14 04:47:26;;;;;;;9.57;8.67;;;;;;;3.46;72.67;99531.66;4974789;28;20466;-67
2022/12/14 04:50:00;;;;;;;9.87;8.93;;;;;;;3.44;72.91;99532.81;4974418;28;20509;-68
2022/12/14 04:52:32;;;;;;;11.10;8.90;;;;;;;3.38;72.65;99536.84;4973397;28;20434;-68
2022/12/14 04:55:05;;;;;;;10.30;9.20;;;;;;;3.45;72.43;99543.16;4973379;28;20499;-68
2022/12/14 04:57:39;;;;;;;9.03;8.23;;;;;;;3.58;72.63;99551.47;4974393;28;20438;-68
2022/12/14 05:00:08;;;;;;;9.73;8.50;;;;;;;3.54;72.53;99549.28;4974543;28;20500;-68
2022/12/14 05:02:51;;;;;;;9.07;8.27;;;;;;;3.62;72.36;99549.34;4973157;28;20951;-68
2022/12/14 05:05:25;;;;;;;10.43;8.37;;;;;;;3.73;71.62;99560.47;4974132;28;20489;-68
2022/12/14 05:07:59;;;;;;;11.40;7.97;;;;;;;3.71;71.25;99562.41;4973078;28;20528;-68
2022/12/14 05:10:34;;;;;;;11.40;8.60;;;;;;;3.45;71.90;99553.66;4973236;28;20862;-68
2022/12/14 05:13:05;;;;;;;10.27;7.90;;;;;;;3.53;71.89;99568.66;4973924;28;20441;-68
2022/12/14 05:15:36;;;;;;;9.77;8.73;;;;;;;3.58;71.82;99561.13;4974084;28;20435;-67
2022/12/14 05:18:04;;;;;;;7.97;7.23;;;;;;;3.69;71.17;99568.81;4973409;28;20881;-67
2022/12/14 05:20:32;;;;;;;9.13;8.33;;;;;;;3.74;71.17;99572.63;4972889;28;21002;-68
2022/12/14 05:22:59;;;;;;;9.33;8.50;;;;;;;3.79;70.49;99559.88;4973778;28;20863;-67
2022/12/14 05:25:26;;;;;;;9.60;8.63;;;;;;;3.89;70.43;99567.66;4974430;28;20446;-67
2022/12/14 05:27:53;;;;;;;9.87;8.77;;;;;;;3.91;70.51;99569.16;4992116;28;20518;-67
2022/12/14 05:30:19;;;;;;;8.77;8.00;;;;;;;3.91;70.40;99569.16;4992434;28;20860;-67
2022/12/14 05:32:46;;;;;;;9.73;8.70;;;;;;;3.86;70.85;99565.34;4992288;28;20444;-68
2022/12/14 05:35:13;;;;;;;8.73;8.03;;;;;;;3.76;71.18;99564.59;4992052;28;20449;-68
2022/12/14 05:37:42;;;;;;;9.47;8.57;;;;;;;3.85;70.12;99568.94;4992108;28;21031;-67
2022/12/14 05:40:10;;;;;;;10.00;8.93;;;;;;;3.60;71.52;99564.47;4992342;28;20499;-68
2022/12/14 05:42:37;;;;;;;11.47;10.03;;;;;;;3.77;71.92;99572.34;4992812;28;20437;-67
2022/12/14 05:45:04;;;;;;;13.27;11.33;;;;;;;3.87;71.76;99578.31;4992387;28;20496;-68
2022/12/14 05:47:31;;;;;;;14.90;11.43;;;;;;;3.93;71.98;99572.44;4992233;28;20481;-68
2022/12/14 05:49:57;;;;;;;25.37;15.87;;;;;;;3.92;72.71;99581.31;4992466;28;20511;-66
2022/12/14 05:52:25;;;;;;;25.67;18.27;;;;;;;3.92;73.31;99588.38;4992048;28;20622;-67
2022/12/14 05:54:53;;;;;;;33.57;13.53;;;;;;;3.94;73.87;99594.31;4991849;28;20445;-67
2022/12/14 05:57:20;;;;;;;24.70;16.33;;;;;;;3.94;73.30;99592.50;4992326;28;20441;-66
2022/12/14 05:59:47;;;;;;;21.37;15.03;;;;;;;3.91;73.77;99592.81;4992377;28;20806;-67
2022/12/14 06:02:14;;;;;;;21.17;13.10;;;;;;;3.91;73.84;99590.19;4991920;28;20453;-66
2022/12/14 06:04:41;;;;;;;16.90;11.70;;;;;;;3.87;74.41;99586.19;4992122;28;20449;-68
2022/12/14 06:07:09;;;;;;;20.47;15.13;;;;;;;3.95;74.17;99591.53;4992430;28;20831;-68
2022/12/14 06:09:36;;;;;;;19.77;16.67;;;;;;;4.04;74.01;99590.59;4991778;28;20449;-67
2022/12/14 06:12:04;;;;;;;39.60;28.20;;;;;;;4.10;74.04;99583.91;4992933;28;20453;-70
2022/12/14 06:14:31;;;;;;;23.43;14.87;;;;;;;4.13;73.58;99600.19;4992003;28;20637;-69
2022/12/14 06:16:57;;;;;;;12.27;10.10;;;;;;;4.14;73.24;99586.09;4992108;28;20457;-69
2022/12/14 06:19:24;;;;;;;17.73;13.30;;;;;;;4.24;72.89;99599.97;4991629;28;21044;-69
2022/12/14 06:21:51;;;;;;;24.67;15.27;;;;;;;4.25;72.69;99603.44;4992155;28;20187;-69
2022/12/14 06:24:19;;;;;;;20.87;11.63;;;;;;;4.23;73.21;99600.94;4992189;28;20195;-69
2022/12/14 06:26:45;;;;;;;46.57;31.53;;;;;;;4.09;72.42;99604.13;4984956;28;20234;-67
2022/12/14 06:29:16;;;;;;;17.70;14.63;;;;;;;4.04;72.15;99601.13;4991258;28;20218;-68
2022/12/14 06:31:43;;;;;;;21.67;13.23;;;;;;;4.06;73.33;99593.94;4994447;28;20227;-69
2022/12/14 06:34:11;;;;;;;19.33;13.30;;;;;;;4.04;72.82;99606.38;4995134;28;20662;-69
2022/12/14 06:36:40;;;;;;;20.53;13.87;;;;;;;4.03;72.40;99615.25;4995371;28;20449;-68
2022/12/14 06:39:08;;;;;;;16.20;11.53;;;;;;;4.04;72.95;99608.19;4995072;28;20444;-68
2022/12/14 06:41:37;;;;;;;12.60;10.83;;;;;;;4.13;73.46;99618.59;4994931;28;20194;-68
2022/12/14 06:44:05;;;;;;;13.17;10.73;;;;;;;4.24;72.25;99618.38;4995079;28;20198;-67
2022/12/14 06:46:34;;;;;;;12.63;11.27;;;;;;;4.32;69.71;99636.84;4995312;28;20568;-66
2022/12/14 06:49:02;;;;;;;11.17;9.43;;;;;;;4.39;69.14;99635.25;4994614;28;21025;-68
2022/12/14 06:51:28;;;;;;;17.20;9.30;;;;;;;4.52;69.10;99640.09;4995641;28;20248;-69
2022/12/14 06:53:57;;;;;;;23.87;10.60;;;;;;;4.62;67.56;99649.53;4994949;28;20199;-69
2022/12/14 06:56:26;;;;;;;18.77;9.67;;;;;;;4.67;66.01;99642.03;4994915;28;20210;-68
2022/12/14 06:58:54;;;;;;;11.47;9.53;;;;;;;4.70;66.04;99644.31;4994976;28;20194;-68
2022/12/14 07:01:22;;;;;;;9.90;9.00;;;;;;;4.70;66.18;99633.78;4993508;28;20741;-69
2022/12/14 07:03:52;;;;;;;16.00;10.40;;;;;;;4.98;65.25;99653.69;4994849;28;20578;-68
2022/12/14 07:06:19;;;;;;;12.37;9.60;;;;;;;5.04;64.91;99650.44;4994819;28;20202;-66
2022/12/14 07:08:46;;;;;;;11.83;10.27;;;;;;;5.21;63.83;99651.34;4995112;28;20201;-68
2022/12/14 07:11:17;;;;;;;12.90;9.60;;;;;;;5.35;63.84;99663.88;4994952;28;20206;-70
2022/12/14 07:13:44;;;;;;;10.50;8.77;;;;;;;5.75;60.68;99662.22;4995497;28;20273;-71
2022/12/14 07:16:14;;;;;;;15.67;10.40;;;;;;;5.97;59.62;99670.53;4988712;28;20198;-68
2022/12/14 07:18:41;;;;;;;12.73;9.27;;;;;;;6.34;60.20;99663.81;4993719;28;20237;-68
2022/12/14 07:21:14;;;;;;;15.53;8.93;;;;;;;6.81;55.67;99670.03;4993413;28;20225;-68
2022/12/14 07:23:43;;;;;;;12.00;9.00;;;;;;;7.17;54.95;99662.50;4991720;28;20201;-68
2022/12/14 07:26:12;;;;;;;15.63;8.07;;;;;;;7.51;52.16;99649.84;4994235;28;20613;-67
2022/12/14 07:28:40;;;;;;;10.60;8.37;;;;;;;7.64;53.39;99655.38;4994385;28;20689;-67
2022/12/14 07:31:10;;;;;;;9.10;8.20;;;;;;;8.07;50.74;99652.13;4993939;28;20304;-66
2022/12/14 07:33:37;;;;;;;12.27;7.33;;;;;;;8.36;50.90;99652.25;4993297;28;20670;-67
2022/12/14 07:36:06;;;;;;;11.37;7.87;;;;;;;8.80;49.29;99650.53;4994335;28;20231;-67
2022/12/14 07:38:35;;;;;;;16.97;7.73;;;;;;;9.04;47.38;99659.06;4993435;28;20626;-67
2022/12/14 07:41:04;;;;;;;8.80;8.13;;;;;;;9.05;48.55;99655.41;4993976;28;20198;-67
2022/12/14 07:43:31;;;;;;;11.13;9.10;;;;;;;9.07;47.33;99647.28;4994090;28;20655;-66
2022/12/14 07:46:02;;;;;;;10.63;7.67;;;;;;;9.02;47.01;99642.53;4993414;28;20198;-67
2022/12/14 07:48:33;;;;;;;9.10;6.80;;;;;;;8.65;47.61;99642.56;4991856;28;20222;-67
2022/12/14 07:51:04;;;;;;;23.80;13.83;;;;;;;8.36;49.14;99650.44;4993082;28;20274;-67
2022/12/14 07:53:35;;;;;;;9.17;8.23;;;;;;;7.60;50.70;99643.50;4993717;28;20199;-67
2022/12/14 07:56:05;;;;;;;8.27;7.50;;;;;;;7.83;49.97;99644.34;4992844;28;20190;-67
2022/12/14 07:58:32;;;;;;;21.23;9.50;;;;;;;7.96;49.67;99661.28;4993473;28;20197;-68
2022/12/14 08:01:10;;;;;;;14.73;8.03;;;;;;;7.93;51.20;99666.13;4992531;28;20199;-68
2022/12/14 08:03:37;;;;;;;12.87;8.60;;;;;;;7.20;51.32;99662.16;4991970;28;20273;-70
2022/12/14 08:06:06;;;;;;;20.17;7.67;;;;;;;6.74;51.54;99665.59;4993818;28;20574;-68
2022/12/14 08:08:33;;;;;;;10.10;8.83;;;;;;;6.95;52.47;99679.09;4992437;28;20266;-70
2022/12/14 08:11:00;;;;;;;15.40;8.80;;;;;;;6.93;52.98;99657.28;4993010;28;20198;-69
2022/12/14 08:13:28;;;;;;;17.03;9.17;;;;;;;7.20;52.54;99672.75;4993150;28;20205;-69
2022/12/14 08:15:56;;;;;;;12.60;9.77;;;;;;;7.25;52.66;99667.75;4995486;28;20194;-69
2022/12/14 08:18:23;;;;;;;13.33;9.27;;;;;;;7.39;52.33;99667.06;4992959;28;20580;-68
2022/12/14 08:20:50;;;;;;;8.30;7.50;;;;;;;7.10;51.84;99661.56;4993223;28;20228;-68
2022/12/14 08:23:17;;;;;;;13.50;7.77;;;;;;;7.22;51.29;99668.13;4992276;28;20187;-68
2022/12/14 08:25:44;;;;;;;7.77;7.07;;;;;;;7.08;50.80;99658.25;4992608;28;20756;-68
2022/12/14 08:28:11;;;;;;;8.07;7.27;;;;;;;7.26;51.76;99672.06;4992488;28;20221;-72
2022/12/14 08:30:40;;;;;;;8.27;7.50;;;;;;;7.46;50.84;99686.50;4992075;28;20193;-68
2022/12/14 08:33:07;;;;;;;7.93;7.27;;;;;;;7.55;50.51;99678.38;4990272;28;20195;-70
2022/12/14 08:35:34;;;;;;;13.10;8.37;;;;;;;7.55;50.71;99682.84;4992277;28;20203;-70
2022/12/14 08:38:03;;;;;;;8.23;7.57;;;;;;;6.85;51.93;99673.16;4992412;28;20730;-68
2022/12/14 08:40:30;;;;;;;24.73;8.93;;;;;;;7.07;51.97;99677.72;5023495;28;20239;-68
2022/12/14 08:42:57;;;;;;;8.10;7.37;;;;;;;7.20;51.75;99678.03;4992370;28;20659;-68
2022/12/14 08:45:24;;;;;;;9.67;7.10;;;;;;;7.17;49.97;99673.06;4992750;28;20193;-70
2022/12/14 08:47:52;;;;;;;8.20;6.60;;;;;;;7.26;51.26;99672.06;4992708;28;20219;-69
2022/12/14 08:50:19;;;;;;;10.17;7.80;;;;;;;7.45;51.54;99666.38;4992566;28;20193;-70
2022/12/14 08:52:47;;;;;;;9.53;7.20;;;;;;;7.69;49.63;99672.38;4993684;28;20203;-70
2022/12/14 08:55:14;;;;;;;12.47;6.90;;;;;;;7.71;49.56;99678.28;4992461;28;20298;-70
2022/12/14 08:57:41;;;;;;;8.83;7.97;;;;;;;8.11;48.41;99677.22;4991288;28;20639;-71
2022/12/14 09:00:09;;;;;;;10.30;7.23;;;;;;;8.16;47.62;99673.06;4990285;28;20636;-70
2022/12/14 09:02:36;;;;;;;8.07;7.37;;;;;;;8.41;47.41;99674.56;4992586;28;20194;-67
2022/12/14 09:05:05;;;;;;;8.33;7.30;;;;;;;8.82;47.23;99672.38;4992888;28;20194;-72
2022/12/14 09:07:32;;;;;;;10.70;8.77;;;;;;;8.90;45.73;99667.00;4992977;28;20222;-69
2022/12/14 09:09:59;;;;;;;8.77;6.27;;;;;;;9.03;45.56;99667.19;4992666;28;20622;-69
2022/12/14 09:12:26;;;;;;;8.47;7.77;;;;;;;9.08;45.20;99670.13;4992925;28;20194;-69
2022/12/14 09:14:53;;;;;;;7.30;6.70;;;;;;;9.27;44.43;99675.69;4992354;28;20186;-71
2022/12/14 09:17:20;;;;;;;8.47;7.80;;;;;;;9.64;43.67;99675.56;4992034;28;20749;-70
2022/12/14 09:19:46;;;;;;;8.07;7.37;;;;;;;9.94;43.46;99673.69;4992055;28;20215;-71
2022/12/14 09:22:14;;;;;;;11.03;8.00;;;;;;;10.01;42.28;99670.06;4992059;28;20191;-70
2022/12/14 09:24:42;;;;;;;10.80;7.67;;;;;;;10.12;42.39;99655.50;4991832;28;20221;-69
2022/12/14 09:27:09;;;;;;;13.87;7.87;;;;;;;10.23;41.93;99647.06;4991913;28;20225;-71
2022/12/14 09:29:36;;;;;;;8.27;7.67;;;;;;;9.93;42.79;99633.03;4991922;28;20186;-70
2022/12/14 09:32:04;;;;;;;8.67;7.97;;;;;;;10.05;43.71;99617.50;4992179;28;20203;-71
2022/12/14 09:34:31;;;;;;;8.33;7.70;;;;;;;10.08;43.89;99602.00;5024273;28;20195;-69
2022/12/14 09:37:03;;;;;;;8.67;7.87;;;;;;;10.25;42.99;99607.88;4992621;28;20206;-73
2022/12/14 09:39:31;;;;;;;9.07;7.77;;;;;;;9.68;44.40;99596.47;4993437;28;20194;-71
2022/12/14 09:42:11;;;;;;;9.07;8.07;;;;;;;9.46;44.21;99605.38;4992581;28;20190;-70
2022/12/14 09:44:49;;;;;;;10.47;8.83;;;;;;;9.40;45.45;99600.84;4992803;28;20198;-72
2022/12/14 09:47:19;;;;;;;8.50;7.60;;;;;;;9.44;45.70;99607.41;4992149;28;20215;-71
2022/12/14 09:49:49;;;;;;;9.03;8.17;;;;;;;9.42;45.61;99596.16;4992497;28;20240;-72
2022/12/14 09:52:20;;;;;;;12.43;8.43;;;;;;;9.46;45.84;99586.81;4992517;28;20269;-70
2022/12/14 09:54:51;;;;;;;16.67;12.07;;;;;;;9.43;45.76;99587.19;4992628;28;20191;-70
2022/12/14 09:57:28;;;;;;;9.57;8.67;;;;;;;9.33;46.29;99590.16;4991263;28;20190;-69
2022/12/14 09:59:55;;;;;;;8.77;7.97;;;;;;;9.40;46.10;99590.22;4990376;28;20218;-69
2022/12/14 10:02:38;;;;;;;9.13;8.13;;;;;;;9.37;45.62;99586.13;4990451;28;20203;-70
2022/12/14 10:05:26;;;;;;;12.10;8.53;;;;;;;9.21;45.54;99581.03;4992199;28;20269;-66
2022/12/14 10:08:03;;;;;;;9.63;8.17;;;;;;;9.10;46.39;99583.31;4994667;28;20207;-71
2022/12/14 10:10:43;;;;;;;9.37;8.60;;;;;;;8.95;47.30;99574.56;4995692;28;20665;-69
2022/12/14 10:13:19;;;;;;;9.80;8.93;;;;;;;9.00;47.32;99570.38;4996011;28;20187;-69
2022/12/14 10:15:56;;;;;;;9.27;8.47;;;;;;;9.04;47.45;99584.06;5000711;28;20193;-68
2022/12/14 10:18:42;;;;;;;31.50;9.80;;;;;;;8.97;48.00;99585.78;4997873;28;20605;-68
2022/12/14 10:21:13;;;;;;;9.67;8.70;;;;;;;8.78;47.97;99594.31;4995420;28;20234;-68
2022/12/14 10:23:47;;;;;;;22.40;8.60;;;;;;;8.79;49.01;99590.63;4994885;28;20210;-69
2022/12/14 10:26:19;;;;;;;10.00;8.87;;;;;;;8.60;48.57;99586.69;4995530;28;20183;-70
2022/12/14 10:28:51;;;;;;;26.60;13.43;;;;;;;8.78;49.21;99587.16;4993497;28;20219;-73
2022/12/14 10:31:27;;;;;;;10.87;7.80;;;;;;;8.73;48.27;99581.59;4995131;28;20186;-69
2022/12/14 10:34:00;;;;;;;10.67;9.37;;;;;;;8.88;49.67;99574.47;4995685;28;20187;-71
2022/12/14 10:36:35;;;;;;;22.37;10.40;;;;;;;9.07;48.90;99568.59;4995502;28;20705;-69
2022/12/14 10:39:17;;;;;;;8.83;8.03;;;;;;;9.03;47.50;99571.81;4995240;28;20257;-68
2022/12/14 10:41:55;;;;;;;9.43;8.63;;;;;;;8.71;47.76;99541.25;4992963;28;20206;-69
2022/12/14 10:44:26;;;;;;;12.73;8.50;;;;;;;8.95;48.68;99548.06;4991802;28;20190;-71
2022/12/14 10:46:59;;;;;;;10.03;9.07;;;;;;;9.02;47.57;99544.50;4991548;28;20201;-70
2022/12/14 10:49:32;;;;;;;15.90;10.27;;;;;;;9.09;48.01;99533.97;4992595;28;20222;-70
2022/12/14 10:52:04;;;;;;;13.93;9.17;;;;;;;9.26;47.84;99525.63;4994998;28;20249;-70
2022/12/14 10:54:36;;;;;;;9.93;9.07;;;;;;;9.45;46.10;99529.50;4993714;28;20647;-69
2022/12/14 10:57:04;;;;;;;8.67;7.87;;;;;;;9.55;46.30;99520.22;4994413;28;20635;-69
2022/12/14 10:59:35;;;;;;;10.33;8.70;;;;;;;9.64;45.82;99513.00;4994889;28;20670;-71
2022/12/14 11:02:06;;;;;;;13.57;9.03;;;;;;;9.74;45.92;99516.97;4995238;28;20201;-69
2022/12/14 11:04:36;;;;;;;9.80;8.80;;;;;;;9.58;46.50;99514.56;4995233;28;20214;-68
2022/12/14 11:07:06;;;;;;;15.17;9.40;;;;;;;9.59;47.61;99510.06;4995586;28;20194;-68
2022/12/14 11:09:33;;;;;;;370.60;128.93;;;;;;;9.99;81.51;99480.22;4993624;28;20206;-67
2022/12/14 11:12:06;;;;;;;9.83;8.93;;;;;;;10.42;50.48;99514.47;4994951;28;20193;-70
2022/12/14 11:14:34;;;;;;;12.97;10.30;;;;;;;10.40;46.86;99505.06;4994785;28;20218;-68
2022/12/14 11:17:00;;;;;;;10.87;9.70;;;;;;;10.24;46.70;99486.75;4995152;28;20280;-67
2022/12/14 11:19:28;;;;;;;10.17;8.90;;;;;;;9.79;46.95;99490.69;4994591;28;20662;-69
2022/12/14 11:22:10;;;;;;;10.03;8.27;;;;;;;9.60;47.14;99471.94;4994306;28;20197;-67
2022/12/14 11:24:45;;;;;;;9.23;8.27;;;;;;;9.93;46.27;99492.41;4994497;28;20186;-69
2022/12/14 11:27:17;;;;;;;9.13;8.33;;;;;;;9.99;45.34;99485.53;4994746;28;20194;-67
2022/12/14 11:29:48;;;;;;;9.57;8.40;;;;;;;9.96;45.78;99488.56;4996885;28;20214;-71
2022/12/14 11:32:22;;;;;;;9.33;8.57;;;;;;;9.88;44.93;99494.00;4994019;28;20202;-70
2022/12/14 11:34:56;;;;;;;19.83;8.03;;;;;;;9.89;45.73;99485.84;4994012;28;20194;-69
2022/12/14 11:37:26;;;;;;;8.57;7.83;;;;;;;9.64;45.64;99478.50;4994096;28;20225;-70
2022/12/14 11:39:59;;;;;;;9.87;8.93;;;;;;;9.60;46.84;99474.59;4993808;28;20198;-69
2022/12/14 11:42:28;;;;;;;7.63;6.83;;;;;;;9.59;45.92;99471.13;4995342;28;20191;-69
2022/12/14 11:44:55;;;;;;;8.77;7.77;;;;;;;9.51;46.33;99447.38;4993877;28;20205;-69
2022/12/14 11:47:24;;;;;;;11.43;8.10;;;;;;;9.53;46.44;99473.72;4994512;28;20218;-67
2022/12/14 11:49:53;;;;;;;7.70;6.77;;;;;;;9.49;46.96;99475.09;4993387;28;20663;-69
2022/12/14 11:52:22;;;;;;;7.90;7.20;;;;;;;9.47;47.09;99474.44;4994096;28;20265;-69
2022/12/14 11:55:09;;;;;;;9.07;8.17;;;;;;;9.49;47.42;99472.44;4994298;28;20190;-69
2022/12/14 11:57:49;;;;;;;13.13;8.57;;;;;;;9.54;47.92;99470.03;4993645;28;20190;-67
2022/12/14 12:00:23;;;;;;;10.07;8.10;;;;;;;9.61;48.48;99460.31;4993971;28;20226;-68
2022/12/14 12:02:59;;;;;;;9.33;8.43;;;;;;;9.59;48.18;99457.03;4994171;28;20186;-69
2022/12/14 12:05:27;;;;;;;13.23;9.10;;;;;;;9.26;49.07;99459.38;4993708;28;20230;-68